createdAt,value
2017-12-12T00:01:38.460Z,91839.41
2017-12-12T00:04:06.802Z,91825.01
2017-12-12T00:06:35.143Z,91830.25
2017-12-12T00:09:03.503Z,91816.08
2017-12-12T00:11:31.887Z,91831.03
2017-12-12T00:14:00.254Z,91842.27
2017-12-12T00:16:28.599Z,91841.59
2017-12-12T00:18:56.942Z,91853.25
2017-12-12T00:21:25.271Z,91853.77
2017-12-12T00:23:53.631Z,91856.25
2017-12-12T00:26:21.963Z,91860.68
2017-12-12T00:28:50.308Z,91860.51
2017-12-12T00:31:18.664Z,91861.97
2017-12-12T00:33:47.000Z,91857.11
2017-12-12T00:36:15.400Z,91869.14
2017-12-12T00:38:43.735Z,91877.95
2017-12-12T00:41:12.068Z,91881.14
2017-12-12T00:43:40.419Z,91883.14
2017-12-12T00:46:08.762Z,91880.59
2017-12-12T00:48:37.087Z,91888.39
2017-12-12T00:51:05.435Z,91887.44
2017-12-12T00:53:33.815Z,91891.67
2017-12-12T00:56:02.153Z,91895.67
2017-12-12T00:58:30.487Z,91895.61
2017-12-12T01:00:58.835Z,91906.93
2017-12-12T01:06:24.046Z,91909.97
2017-12-12T01:08:52.393Z,91912.95
2017-12-12T01:11:20.776Z,91915.43
2017-12-12T01:13:49.124Z,91927.34
2017-12-12T01:16:17.468Z,91935.55
2017-12-12T01:18:45.811Z,91920.66
2017-12-12T01:21:14.152Z,91934.70
2017-12-12T01:23:42.535Z,91947.06
2017-12-12T01:26:10.877Z,91949.55
2017-12-12T01:28:39.258Z,91959.87
2017-12-12T01:34:04.398Z,91971.44
2017-12-12T01:36:32.778Z,91973.34
2017-12-12T01:39:01.114Z,91977.30
2017-12-12T01:41:29.448Z,91989.29
2017-12-12T01:43:57.788Z,91995.27
2017-12-12T01:46:26.132Z,91991.03
2017-12-12T01:48:54.527Z,92000.72
2017-12-12T01:51:22.879Z,92008.70
2017-12-12T01:53:51.210Z,92022.23
2017-12-12T01:56:19.549Z,92040.45
2017-12-12T01:58:47.905Z,92045.40
2017-12-12T02:01:16.266Z,92053.55
2017-12-12T02:03:44.611Z,92072.13
2017-12-12T02:06:12.949Z,92072.52
2017-12-12T02:08:41.299Z,92071.88
2017-12-12T02:11:09.639Z,92088.83
2017-12-12T02:13:38.013Z,92097.30
2017-12-12T02:16:06.354Z,92112.17
2017-12-12T02:18:34.731Z,92111.96
2017-12-12T02:21:03.093Z,92121.13
2017-12-12T02:23:31.491Z,92133.77
2017-12-12T02:25:59.850Z,92140.80
2017-12-12T02:28:28.187Z,92139.02
2017-12-12T02:30:56.667Z,92148.09
2017-12-12T02:33:24.997Z,92154.89
2017-12-12T02:35:53.340Z,92161.58
2017-12-12T02:38:21.800Z,92173.00
2017-12-12T02:40:50.164Z,92179.06
2017-12-12T02:43:18.510Z,92188.41
2017-12-12T02:45:46.863Z,92191.91
2017-12-12T02:48:15.239Z,92202.27
2017-12-12T02:50:43.615Z,92209.33
2017-12-12T02:53:11.940Z,92222.72
2017-12-12T02:55:40.299Z,92230.11
2017-12-12T02:58:08.631Z,92236.98
2017-12-12T03:00:36.973Z,92252.45
2017-12-12T03:03:05.341Z,92258.26
2017-12-12T03:05:33.678Z,92262.42
2017-12-12T03:08:02.068Z,92268.60
2017-12-12T03:10:30.401Z,92277.91
2017-12-12T03:12:58.733Z,92294.64
2017-12-12T03:15:27.111Z,92303.75
2017-12-12T03:17:56.259Z,92310.46
2017-12-12T03:20:24.621Z,92315.48
2017-12-12T03:22:52.954Z,92330.35
2017-12-12T03:25:21.290Z,92337.86
2017-12-12T03:27:49.622Z,92350.34
2017-12-12T03:30:17.956Z,92349.32
2017-12-12T03:32:46.310Z,92370.38
2017-12-12T03:35:14.638Z,92370.91
2017-12-12T03:37:42.973Z,92386.06
2017-12-12T03:40:11.299Z,92386.59
2017-12-12T03:42:39.627Z,92398.31
2017-12-12T03:45:07.989Z,92411.72
2017-12-12T03:47:36.320Z,92410.58
2017-12-12T03:50:04.656Z,92422.82
2017-12-12T03:52:32.982Z,92424.64
2017-12-12T03:55:01.316Z,92426.75
2017-12-12T03:57:29.681Z,92435.53
2017-12-12T03:59:58.005Z,92441.16
2017-12-12T04:02:26.344Z,92443.16
2017-12-12T04:04:54.680Z,92457.28
2017-12-12T04:07:23.054Z,92468.96
2017-12-12T04:09:51.406Z,92473.45
2017-12-12T04:12:19.749Z,92474.89
2017-12-12T04:14:48.082Z,92501.13
2017-12-12T04:17:16.406Z,92504.97
2017-12-12T04:19:44.768Z,92512.36
2017-12-12T04:22:14.848Z,92531.57
2017-12-12T04:24:43.218Z,92538.55
2017-12-12T04:27:11.549Z,92552.58
2017-12-12T04:29:39.883Z,92552.97
2017-12-12T04:32:08.254Z,92567.02
2017-12-12T04:34:36.600Z,92568.70
2017-12-12T04:37:04.930Z,92576.70
2017-12-12T04:39:33.269Z,92564.42
2017-12-12T04:42:01.595Z,92571.15
2017-12-12T04:44:29.964Z,92585.22
2017-12-12T04:46:58.295Z,92607.91
2017-12-12T04:49:26.617Z,92621.73
2017-12-12T04:51:54.953Z,92622.90
2017-12-12T04:54:23.286Z,92629.28
2017-12-12T04:56:51.675Z,92646.80
2017-12-12T04:59:20.026Z,92652.22
2017-12-12T05:01:48.355Z,92669.20
2017-12-12T05:04:16.687Z,92683.56
2017-12-12T05:06:45.027Z,92700.85
2017-12-12T05:09:13.395Z,92704.23
2017-12-12T05:11:41.733Z,92706.91
2017-12-12T05:14:10.070Z,92720.41
2017-12-12T05:16:38.394Z,92724.23
2017-12-12T05:19:06.721Z,92736.02
2017-12-12T05:21:35.095Z,92746.75
2017-12-12T05:24:03.422Z,92755.16
2017-12-12T05:26:31.764Z,92771.84
2017-12-12T05:29:00.102Z,92774.81
2017-12-12T05:31:28.435Z,92782.54
2017-12-12T05:33:56.795Z,92783.39
2017-12-12T05:36:25.122Z,92789.30
2017-12-12T05:38:53.450Z,92806.03
2017-12-12T05:41:21.786Z,92818.80
2017-12-12T05:43:50.123Z,92837.20
2017-12-12T05:46:18.486Z,92831.77
2017-12-12T05:48:46.827Z,92841.11
2017-12-12T05:51:15.160Z,92848.62
2017-12-12T05:53:43.570Z,92840.22
2017-12-12T05:56:11.903Z,92877.22
2017-12-12T05:58:40.273Z,92895.01
2017-12-12T06:01:08.662Z,92902.85
2017-12-12T06:03:37.001Z,92911.97
2017-12-12T06:06:05.331Z,92924.18
2017-12-12T06:08:33.669Z,92932.82
2017-12-12T06:11:02.047Z,92937.50
2017-12-12T06:13:30.375Z,92938.81
2017-12-12T06:15:58.702Z,92956.13
2017-12-12T06:18:27.041Z,92972.09
2017-12-12T06:20:55.366Z,92986.22
2017-12-12T06:23:23.752Z,92989.86
2017-12-12T06:25:52.082Z,92999.21
2017-12-12T06:28:20.411Z,93014.94
2017-12-12T06:30:48.755Z,93011.97
2017-12-12T06:33:17.094Z,93029.96
2017-12-12T06:35:45.458Z,93037.73
2017-12-12T06:38:13.792Z,93053.09
2017-12-12T06:40:42.124Z,93072.64
2017-12-12T06:43:10.450Z,93083.95
2017-12-12T06:45:38.832Z,93091.91
2017-12-12T06:48:07.189Z,93114.02
2017-12-12T06:50:35.527Z,93111.79
2017-12-12T06:53:03.908Z,93121.50
2017-12-12T06:55:32.257Z,93125.63
2017-12-12T06:58:00.589Z,93134.02
2017-12-12T07:00:28.967Z,93148.10
2017-12-12T07:02:57.315Z,93156.75
2017-12-12T07:05:25.647Z,93163.43
2017-12-12T07:07:54.027Z,93179.06
2017-12-12T07:10:22.371Z,93187.06
2017-12-12T07:12:50.750Z,93209.91
2017-12-12T07:15:22.113Z,93222.80
2017-12-12T07:17:50.847Z,93217.16
2017-12-12T07:20:19.304Z,93223.87
2017-12-12T07:22:48.733Z,93228.32
2017-12-12T07:25:17.081Z,93231.18
2017-12-12T07:27:48.354Z,93241.49
2017-12-12T07:30:16.763Z,93246.64
2017-12-12T07:32:45.108Z,93256.23
2017-12-12T07:35:13.532Z,93264.70
2017-12-12T07:37:41.857Z,93269.42
2017-12-12T07:40:10.243Z,93282.34
2017-12-12T07:42:38.718Z,93276.38
2017-12-12T07:45:07.058Z,93285.09
2017-12-12T07:47:35.404Z,93285.41
2017-12-12T07:50:03.734Z,93301.93
2017-12-12T07:52:32.082Z,93307.00
2017-12-12T07:55:00.481Z,93317.83
2017-12-12T07:57:28.834Z,93318.33
2017-12-12T07:59:57.179Z,93333.26
2017-12-12T08:02:25.514Z,93340.41
2017-12-12T08:04:53.857Z,93345.33
2017-12-12T08:07:22.243Z,93356.44
2017-12-12T08:09:50.594Z,93354.20
2017-12-12T08:12:18.940Z,93357.75
2017-12-12T08:14:47.268Z,93372.11
2017-12-12T08:17:15.667Z,93379.13
2017-12-12T08:19:44.034Z,93373.52
2017-12-12T08:22:12.370Z,93381.31
2017-12-12T08:24:40.706Z,93390.54
2017-12-12T08:27:09.048Z,93398.01
2017-12-12T08:29:37.398Z,93403.26
2017-12-12T08:32:05.867Z,93407.71
2017-12-12T08:34:34.239Z,93423.29
2017-12-12T08:37:02.599Z,93446.08
2017-12-12T08:39:30.953Z,93425.70
2017-12-12T08:41:59.828Z,93429.66
2017-12-12T08:44:28.275Z,93441.41
2017-12-12T08:46:56.610Z,93443.21
2017-12-12T08:49:24.961Z,93451.69
2017-12-12T08:51:53.315Z,93446.84
2017-12-12T08:54:21.663Z,93454.75
2017-12-12T08:56:50.042Z,93466.86
2017-12-12T08:59:18.383Z,93473.34
2017-12-12T09:01:46.729Z,93487.59
2017-12-12T09:04:15.112Z,93506.27
2017-12-12T09:06:43.451Z,93516.36
2017-12-12T09:09:11.907Z,93510.10
2017-12-12T09:11:40.275Z,93515.58
2017-12-12T09:14:08.620Z,93526.06
2017-12-12T09:16:36.962Z,93526.12
2017-12-12T09:19:05.308Z,93539.17
2017-12-12T09:21:33.698Z,93534.08
2017-12-12T09:24:02.050Z,93550.95
2017-12-12T09:26:30.406Z,93545.29
2017-12-12T09:28:58.756Z,93552.70
2017-12-12T09:31:27.114Z,93563.43
2017-12-12T09:33:55.479Z,93571.53
2017-12-12T09:36:23.815Z,93574.23
2017-12-12T09:38:52.159Z,93579.86
2017-12-12T09:41:20.499Z,93580.03
2017-12-12T09:43:48.846Z,93590.73
2017-12-12T09:46:17.231Z,93590.82
2017-12-12T09:48:45.566Z,93593.04
2017-12-12T09:51:13.913Z,93593.27
2017-12-12T09:53:42.253Z,93599.33
2017-12-12T09:56:10.591Z,93617.75
2017-12-12T09:58:38.967Z,93609.80
2017-12-12T10:01:07.313Z,93621.77
2017-12-12T10:03:35.653Z,93628.76
2017-12-12T10:06:03.995Z,93631.28
2017-12-12T10:08:32.358Z,93635.34
2017-12-12T10:11:00.735Z,93638.96
2017-12-12T10:13:29.074Z,93643.45
2017-12-12T10:15:57.468Z,93650.66
2017-12-12T10:18:25.816Z,93660.61
2017-12-12T10:20:54.166Z,93649.06
2017-12-12T10:23:22.572Z,93652.17
2017-12-12T10:25:50.907Z,93656.52
2017-12-12T10:28:19.284Z,93661.80
2017-12-12T10:30:47.621Z,93665.63
2017-12-12T10:33:15.985Z,93677.61
2017-12-12T10:35:44.350Z,93674.94
2017-12-12T10:38:12.697Z,93686.20
2017-12-12T10:40:41.048Z,93683.63
2017-12-12T10:43:09.391Z,93682.50
2017-12-12T10:45:37.731Z,93698.56
2017-12-12T10:48:06.134Z,93691.78
2017-12-12T10:50:34.479Z,93685.31
2017-12-12T10:53:02.813Z,93696.13
2017-12-12T10:55:31.154Z,93696.71
2017-12-12T10:57:59.503Z,93698.17
2017-12-12T11:00:27.869Z,93701.54
2017-12-12T11:02:56.218Z,93700.91
2017-12-12T11:05:24.559Z,93689.14
2017-12-12T11:07:52.920Z,93693.58
2017-12-12T11:10:21.281Z,93703.86
2017-12-12T11:12:49.843Z,93703.55
2017-12-12T11:15:18.189Z,93716.11
2017-12-12T11:17:46.549Z,93715.95
2017-12-12T11:20:14.893Z,93726.20
2017-12-12T11:22:43.226Z,93728.37
2017-12-12T11:25:11.608Z,93724.56
2017-12-12T11:27:39.958Z,93727.36
2017-12-12T11:30:08.298Z,93723.94
2017-12-12T11:32:36.636Z,93736.95
2017-12-12T11:35:04.968Z,93746.14
2017-12-12T11:37:35.196Z,93733.95
2017-12-12T11:40:03.534Z,93735.35
2017-12-12T11:42:31.886Z,93736.17
2017-12-12T11:45:00.240Z,93740.38
2017-12-12T11:47:28.569Z,93746.22
2017-12-12T11:49:57.062Z,93751.54
2017-12-12T11:52:25.727Z,93742.24
2017-12-12T11:54:54.352Z,93749.28
2017-12-12T11:57:22.775Z,93758.61
2017-12-12T11:59:51.107Z,93762.28
2017-12-12T12:02:19.610Z,93766.42
2017-12-12T12:04:47.939Z,93784.05
2017-12-12T12:07:16.292Z,93781.73
2017-12-12T12:09:44.654Z,93787.37
2017-12-12T12:12:13.119Z,93790.60
2017-12-12T12:14:41.495Z,93789.59
2017-12-12T12:17:09.855Z,93793.09
2017-12-12T12:19:38.204Z,93804.56
2017-12-12T12:22:06.619Z,93805.81
2017-12-12T12:24:35.042Z,93812.65
2017-12-12T12:27:03.416Z,93823.19
2017-12-12T12:29:31.913Z,93823.48
2017-12-12T12:32:01.119Z,93834.70
2017-12-12T12:34:29.531Z,93842.03
2017-12-12T12:36:57.913Z,93850.05
2017-12-12T12:39:26.287Z,93856.66
2017-12-12T12:42:11.400Z,93845.56
2017-12-12T12:44:39.971Z,93865.17
2017-12-12T12:47:08.381Z,93861.02
2017-12-12T12:49:36.823Z,93862.23
2017-12-12T12:52:05.179Z,93868.88
2017-12-12T12:54:33.541Z,93872.50
2017-12-12T12:57:01.887Z,93881.42
2017-12-12T12:59:30.271Z,93878.48
2017-12-12T13:01:58.688Z,93894.45
2017-12-12T13:04:27.112Z,93891.52
2017-12-12T13:09:24.766Z,93905.70
2017-12-12T13:11:53.138Z,93906.95
2017-12-12T13:14:21.484Z,93911.27
2017-12-12T13:16:49.872Z,93915.72
2017-12-12T13:19:18.258Z,93925.58
2017-12-12T13:21:46.559Z,93923.06
2017-12-12T13:24:14.921Z,93918.50
2017-12-12T13:26:43.267Z,93942.88
2017-12-12T13:29:11.607Z,93947.21
2017-12-12T13:31:40.157Z,93952.40
2017-12-12T13:34:08.521Z,93940.46
2017-12-12T13:36:36.888Z,93955.34
2017-12-12T13:39:05.236Z,93959.47
2017-12-12T13:41:33.605Z,93960.39
2017-12-12T13:44:01.939Z,93961.06
2017-12-12T13:46:30.276Z,93972.53
2017-12-12T13:48:58.651Z,93976.25
2017-12-12T13:51:26.996Z,93975.80
2017-12-12T13:53:55.326Z,93984.15
2017-12-12T13:56:23.664Z,93993.48
2017-12-12T13:58:52.015Z,93989.12
2017-12-12T14:01:20.395Z,93994.30
2017-12-12T14:03:48.730Z,93994.80
2017-12-12T14:06:17.198Z,93986.86
2017-12-12T14:08:46.718Z,94001.58
2017-12-12T14:11:21.742Z,94005.39
2017-12-12T14:13:56.727Z,94011.64
2017-12-12T14:16:25.122Z,94019.42
2017-12-12T14:18:53.752Z,94019.77
2017-12-12T14:21:22.144Z,94032.45
2017-12-12T14:23:50.515Z,94035.11
2017-12-12T14:26:18.911Z,94038.56
2017-12-12T14:28:47.270Z,94044.47
2017-12-12T14:31:15.611Z,94042.97
2017-12-12T14:33:43.960Z,94065.72
2017-12-12T14:36:12.295Z,94063.67
2017-12-12T14:38:40.671Z,94070.33
2017-12-12T14:41:09.037Z,94074.93
2017-12-12T14:43:37.384Z,94072.98
2017-12-12T14:46:05.763Z,94076.66
2017-12-12T14:48:34.144Z,94082.85
2017-12-12T14:51:02.608Z,94088.55
2017-12-12T14:53:30.979Z,94093.55
2017-12-12T14:55:59.314Z,94098.46
2017-12-12T14:58:27.661Z,94100.45
2017-12-12T15:00:56.009Z,94116.47
2017-12-12T15:03:24.527Z,94115.59
2017-12-12T15:05:52.867Z,94118.23
2017-12-12T15:08:21.206Z,94125.02
2017-12-12T15:10:49.565Z,94131.58
2017-12-12T15:13:17.910Z,94140.16
2017-12-12T15:15:46.274Z,94144.36
2017-12-12T15:18:14.610Z,94157.22
2017-12-12T15:20:42.945Z,94158.77
2017-12-12T15:23:11.284Z,94161.94
2017-12-12T15:25:39.652Z,94166.77
2017-12-12T15:28:08.026Z,94178.28
2017-12-12T15:30:36.379Z,94187.61
2017-12-12T15:33:04.736Z,94191.34
2017-12-12T15:35:33.137Z,94194.02
2017-12-12T15:38:01.502Z,94197.04
2017-12-12T15:40:29.926Z,94207.31
2017-12-12T15:42:58.434Z,94202.70
2017-12-12T15:45:26.805Z,94205.69
2017-12-12T15:47:55.334Z,94216.47
2017-12-12T15:50:24.895Z,94223.48
2017-12-12T15:52:53.241Z,94230.38
2017-12-12T15:55:21.577Z,94229.73
2017-12-12T15:57:49.915Z,94229.80
2017-12-12T16:00:18.442Z,94237.07
2017-12-12T16:02:46.914Z,94240.28
2017-12-12T16:05:15.259Z,94246.55
2017-12-12T16:07:43.597Z,94250.82
2017-12-12T16:10:11.961Z,94254.13
2017-12-12T16:12:40.322Z,94252.08
2017-12-12T16:15:10.010Z,94265.00
2017-12-12T16:17:38.368Z,94264.41
2017-12-12T16:20:06.763Z,94272.00
2017-12-12T16:22:35.111Z,94273.59
2017-12-12T16:25:03.472Z,94280.72
2017-12-12T16:27:31.834Z,94283.27
2017-12-12T16:30:00.178Z,94291.01
2017-12-12T16:32:28.531Z,94288.05
2017-12-12T16:34:56.875Z,94296.47
2017-12-12T16:37:25.220Z,94297.86
2017-12-12T16:39:53.707Z,94297.67
2017-12-12T16:42:22.034Z,94306.80
2017-12-12T16:44:50.370Z,94316.00
2017-12-12T16:47:18.707Z,94315.70
2017-12-12T16:49:47.054Z,94321.66
2017-12-12T16:52:15.448Z,94326.19
2017-12-12T16:54:43.778Z,94326.47
2017-12-12T16:57:12.186Z,94329.72
2017-12-12T16:59:40.531Z,94336.26
2017-12-12T17:02:08.870Z,94335.94
2017-12-12T17:04:37.336Z,94344.63
2017-12-12T17:07:05.684Z,94343.45
2017-12-12T17:12:08.595Z,94351.04
2017-12-12T17:14:36.934Z,94351.17
2017-12-12T17:17:05.318Z,94345.41
2017-12-12T17:19:33.662Z,94348.61
2017-12-12T17:22:02.000Z,94354.68
2017-12-12T17:24:30.344Z,94359.17
2017-12-12T17:26:58.682Z,94360.67
2017-12-12T17:29:27.053Z,94373.36
2017-12-12T17:31:55.451Z,94376.05
2017-12-12T17:34:29.476Z,94382.63
2017-12-12T17:36:57.829Z,94377.16
2017-12-12T17:39:26.157Z,94379.73
2017-12-12T17:41:54.498Z,94384.34
2017-12-12T17:44:22.838Z,94385.69
2017-12-12T17:46:51.226Z,94389.09
2017-12-12T17:49:19.578Z,94400.60
2017-12-12T17:51:47.914Z,94396.67
2017-12-12T17:54:16.250Z,94405.72
2017-12-12T17:56:44.594Z,94401.80
2017-12-12T17:59:13.012Z,94404.05
2017-12-12T18:01:41.355Z,94415.77
2017-12-12T18:04:09.763Z,94416.17
2017-12-12T18:06:38.158Z,94420.30
2017-12-12T18:09:06.511Z,94424.63
2017-12-12T18:11:34.972Z,94422.87
2017-12-12T18:14:03.362Z,94424.02
2017-12-12T18:16:31.718Z,94427.01
2017-12-12T18:19:00.054Z,94434.60
2017-12-12T18:21:28.395Z,94439.11
2017-12-12T18:23:56.787Z,94441.41
2017-12-12T18:26:25.122Z,94438.71
2017-12-12T18:28:53.495Z,94440.40
2017-12-12T18:31:21.844Z,94455.83
2017-12-12T18:33:50.203Z,94464.52
2017-12-12T18:36:18.597Z,94467.36
2017-12-12T18:38:46.948Z,94465.05
2017-12-12T18:41:15.290Z,94466.83
2017-12-12T18:43:43.686Z,94477.00
2017-12-12T18:46:12.048Z,94482.30
2017-12-12T18:48:40.582Z,94479.04
2017-12-12T18:51:08.922Z,94480.91
2017-12-12T18:53:37.272Z,94481.48
2017-12-12T18:56:05.622Z,94488.14
2017-12-12T18:58:34.015Z,94491.19
2017-12-12T19:01:02.388Z,94481.73
2017-12-12T19:03:30.758Z,94488.41
2017-12-12T19:05:59.098Z,94491.98
2017-12-12T19:08:27.450Z,94496.66
2017-12-12T19:10:55.791Z,94494.36
2017-12-12T19:13:24.169Z,94495.95
2017-12-12T19:15:52.499Z,94502.05
2017-12-12T19:18:20.855Z,94495.39
2017-12-12T19:20:49.194Z,94499.27
2017-12-12T19:23:17.587Z,94504.53
2017-12-12T19:25:46.175Z,94503.19
2017-12-12T19:28:14.611Z,94503.50
2017-12-12T19:30:42.964Z,94510.49
2017-12-12T19:33:11.351Z,94514.54
2017-12-12T19:35:40.357Z,94521.14
2017-12-12T19:38:08.757Z,94517.05
2017-12-12T19:40:37.162Z,94516.27
2017-12-12T19:43:05.517Z,94516.77
2017-12-12T19:45:33.897Z,94517.14
2017-12-12T19:48:02.290Z,94522.36
2017-12-12T19:50:30.682Z,94519.95
2017-12-12T19:52:59.060Z,94520.45
2017-12-12T19:55:27.425Z,94517.14
2017-12-12T19:57:56.837Z,94524.02
2017-12-12T20:00:25.185Z,94524.75
2017-12-12T20:02:57.343Z,94531.08
2017-12-12T20:05:25.750Z,94530.64
2017-12-12T20:07:54.155Z,94534.03
2017-12-12T20:10:22.501Z,94532.42
2017-12-12T20:12:51.031Z,94539.67
2017-12-12T20:15:19.470Z,94530.42
2017-12-12T20:17:48.225Z,94538.17
2017-12-12T20:20:16.694Z,94541.64
2017-12-12T20:22:45.057Z,94539.00
2017-12-12T20:25:13.506Z,94544.18
2017-12-12T20:27:41.888Z,94533.67
2017-12-12T20:30:10.263Z,94541.34
2017-12-12T20:32:38.795Z,94538.99
2017-12-12T20:35:07.221Z,94531.61
2017-12-12T20:37:36.885Z,94545.70
2017-12-12T20:40:05.293Z,94538.70
2017-12-12T20:42:33.737Z,94532.36
2017-12-12T20:45:02.114Z,94536.91
2017-12-12T20:47:30.754Z,94537.81
2017-12-12T20:49:59.102Z,94541.91
2017-12-12T20:52:27.446Z,94538.09
2017-12-12T20:54:55.798Z,94536.92
2017-12-12T20:57:24.174Z,94530.80
2017-12-12T20:59:52.542Z,94533.59
2017-12-12T21:02:20.992Z,94537.63
2017-12-12T21:04:49.429Z,94536.90
2017-12-12T21:07:23.436Z,94537.21
2017-12-12T21:09:51.864Z,94537.53
2017-12-12T21:12:20.222Z,94529.45
2017-12-12T21:14:48.594Z,94533.10
2017-12-12T21:17:17.025Z,94537.94
2017-12-12T21:19:45.389Z,94536.77
2017-12-12T21:22:13.860Z,94532.67
2017-12-12T21:24:42.223Z,94534.31
2017-12-12T21:27:10.549Z,94534.16
2017-12-12T21:29:38.902Z,94536.58
2017-12-12T21:32:07.264Z,94539.78
2017-12-12T21:34:35.718Z,94534.36
2017-12-12T21:37:05.000Z,94532.86
2017-12-12T21:39:34.271Z,94533.98
2017-12-12T21:42:02.662Z,94534.11
2017-12-12T21:44:31.161Z,94536.27
2017-12-12T21:46:59.552Z,94538.61
2017-12-12T21:49:27.904Z,94537.96
2017-12-12T21:51:56.230Z,94533.50
2017-12-12T21:54:24.582Z,94529.61
2017-12-12T21:56:52.936Z,94537.55
2017-12-12T21:59:21.324Z,94528.97
2017-12-12T22:01:49.683Z,94533.95
2017-12-12T22:04:18.040Z,94530.33
2017-12-12T22:06:46.576Z,94532.81
2017-12-12T22:09:14.932Z,94535.52
2017-12-12T22:11:43.279Z,94534.27
2017-12-12T22:14:11.628Z,94537.25
2017-12-12T22:16:39.962Z,94534.87
2017-12-12T22:19:08.466Z,94533.09
2017-12-12T22:21:36.813Z,94537.69
2017-12-12T22:24:10.697Z,94540.08
2017-12-12T22:26:39.046Z,94544.73
2017-12-12T22:29:07.463Z,94542.45
2017-12-12T22:31:35.806Z,94544.87
2017-12-12T22:34:04.179Z,94549.67
2017-12-12T22:39:08.950Z,94554.96
2017-12-12T22:41:37.290Z,94567.16
2017-12-12T22:44:05.626Z,94563.33
2017-12-12T22:46:33.995Z,94570.70
2017-12-12T22:49:02.340Z,94562.83
2017-12-12T22:51:30.682Z,94560.62
2017-12-12T22:53:59.025Z,94569.16
2017-12-12T22:56:27.400Z,94576.03
2017-12-12T22:58:55.733Z,94565.48
2017-12-12T23:01:24.078Z,94563.45
2017-12-12T23:03:52.420Z,94566.47
2017-12-12T23:06:20.755Z,94567.28
2017-12-12T23:08:50.826Z,94566.89
2017-12-12T23:11:19.142Z,94560.56
2017-12-12T23:13:47.478Z,94558.29
2017-12-12T23:16:15.823Z,94559.27
2017-12-12T23:18:44.162Z,94553.61
2017-12-12T23:21:12.578Z,94558.38
2017-12-12T23:23:40.908Z,94556.84
2017-12-12T23:26:09.245Z,94560.55
2017-12-12T23:28:37.585Z,94553.68
2017-12-12T23:31:05.927Z,94564.25
2017-12-12T23:33:34.334Z,94567.27
2017-12-12T23:36:02.668Z,94562.59
2017-12-12T23:38:31.007Z,94556.63
2017-12-12T23:40:59.346Z,94554.30
2017-12-12T23:43:27.696Z,94560.71
2017-12-12T23:45:56.063Z,94562.88
2017-12-12T23:48:24.395Z,94566.55
2017-12-12T23:50:52.722Z,94555.04
2017-12-12T23:53:21.053Z,94558.39
2017-12-12T23:55:49.398Z,94558.19
2017-12-12T23:58:17.864Z,94552.24
